createdAt,value
2018-11-11T00:03:25.958Z,97058.00
2018-11-11T00:07:28.457Z,97051.00
2018-11-11T00:11:31.022Z,97043.00
2018-11-11T00:15:33.635Z,97040.00
2018-11-11T00:19:36.075Z,97063.00
2018-11-11T00:23:38.560Z,97047.00
2018-11-11T00:27:41.069Z,97054.00
2018-11-11T00:31:43.545Z,97045.00
2018-11-11T00:35:46.083Z,97037.00
2018-11-11T00:39:48.523Z,97059.00
2018-11-11T00:43:50.959Z,97057.00
2018-11-11T00:47:53.551Z,97065.00
2018-11-11T00:51:56.113Z,97061.00
2018-11-11T00:55:58.673Z,97061.00
2018-11-11T01:00:01.176Z,97058.00
2018-11-11T01:04:04.004Z,97068.00
2018-11-11T01:08:06.689Z,97071.00
2018-11-11T01:12:09.172Z,97080.00
2018-11-11T01:16:11.619Z,97071.00
2018-11-11T01:20:15.243Z,97078.00
2018-11-11T01:24:17.669Z,97089.00
2018-11-11T01:28:20.117Z,97099.00
2018-11-11T01:32:22.624Z,97130.00
2018-11-11T01:36:25.149Z,97124.00
2018-11-11T01:40:28.582Z,97121.00
2018-11-11T01:44:30.989Z,97135.00
2018-11-11T01:48:33.422Z,97143.00
2018-11-11T01:52:35.973Z,97141.00
2018-11-11T01:56:38.490Z,97143.00
2018-11-11T02:00:40.958Z,97150.00
2018-11-11T02:04:43.522Z,97137.00
2018-11-11T02:08:46.005Z,97040.00
2018-11-11T02:12:48.437Z,97143.00
2018-11-11T02:16:50.907Z,97134.00
2018-11-11T02:20:53.371Z,97138.00
2018-11-11T02:24:55.794Z,97136.00
2018-11-11T02:28:58.334Z,97123.00
2018-11-11T02:33:00.778Z,97109.00
2018-11-11T02:37:03.352Z,97111.00
2018-11-11T02:41:06.433Z,97116.00
2018-11-11T02:45:10.614Z,97118.00
2018-11-11T02:49:13.117Z,97125.00
2018-11-11T02:53:15.629Z,97128.00
2018-11-11T02:57:18.197Z,97123.00
2018-11-11T03:01:20.740Z,97116.00
2018-11-11T03:05:23.269Z,97110.00
2018-11-11T03:09:25.723Z,97105.00
2018-11-11T03:13:28.177Z,97097.00
2018-11-11T03:17:30.759Z,97099.00
2018-11-11T03:21:33.169Z,97096.00
2018-11-11T03:25:35.577Z,97096.00
2018-11-11T03:29:38.077Z,97092.00
2018-11-11T03:33:40.532Z,97094.00
2018-11-11T03:37:43.619Z,97095.00
2018-11-11T03:41:46.249Z,97092.00
2018-11-11T03:45:48.854Z,97069.00
2018-11-11T03:49:51.322Z,97065.00
2018-11-11T03:53:53.806Z,97075.00
2018-11-11T03:57:56.339Z,97069.00
2018-11-11T04:01:58.902Z,97066.00
2018-11-11T04:06:01.412Z,97060.00
2018-11-11T04:10:05.164Z,97064.00
2018-11-11T04:14:07.971Z,97057.00
2018-11-11T04:18:10.699Z,97052.00
2018-11-11T04:22:19.847Z,97049.00
2018-11-11T04:26:22.298Z,97072.00
2018-11-11T04:30:24.767Z,97057.00
2018-11-11T04:34:27.215Z,97064.00
2018-11-11T04:38:29.744Z,97068.00
2018-11-11T04:42:32.236Z,97067.00
2018-11-11T04:46:34.882Z,97070.00
2018-11-11T04:50:37.271Z,97081.00
2018-11-11T04:54:39.761Z,97083.00
2018-11-11T04:58:42.239Z,97072.00
2018-11-11T05:02:44.686Z,97080.00
2018-11-11T05:06:47.123Z,97080.00
2018-11-11T05:10:49.579Z,97083.00
2018-11-11T05:14:52.052Z,97080.00
2018-11-11T05:18:54.591Z,97082.00
2018-11-11T05:22:57.140Z,97088.00
2018-11-11T05:26:59.661Z,97088.00
2018-11-11T05:31:02.271Z,97094.00
2018-11-11T05:35:04.742Z,97098.00
2018-11-11T05:39:09.262Z,97097.00
2018-11-11T05:43:11.742Z,97103.00
2018-11-11T05:47:14.287Z,97124.00
2018-11-11T05:51:16.726Z,97113.00
2018-11-11T05:55:19.253Z,97116.00
2018-11-11T05:59:21.792Z,97104.00
2018-11-11T06:03:24.321Z,97116.00
2018-11-11T06:07:26.781Z,97118.00
2018-11-11T06:11:29.267Z,97156.00
2018-11-11T06:15:31.687Z,97143.00
2018-11-11T06:19:34.145Z,97144.00
2018-11-11T06:23:36.722Z,97128.00
2018-11-11T06:27:39.251Z,97130.00
2018-11-11T06:31:41.595Z,97118.00
2018-11-11T06:35:44.132Z,97114.00
2018-11-11T06:39:46.642Z,97134.00
2018-11-11T06:43:49.166Z,97139.00
2018-11-11T06:47:51.919Z,97160.00
2018-11-11T06:51:54.472Z,97151.00
2018-11-11T06:55:57.087Z,97165.00
2018-11-11T06:59:59.727Z,97168.00
2018-11-11T07:04:02.987Z,97136.00
2018-11-11T07:08:05.511Z,97144.00
2018-11-11T07:12:07.971Z,97156.00
2018-11-11T07:16:11.225Z,97154.00
2018-11-11T07:20:14.296Z,97163.00
2018-11-11T07:24:16.912Z,97153.00
2018-11-11T07:28:19.457Z,97158.00
2018-11-11T07:32:21.952Z,97161.00
2018-11-11T07:36:24.587Z,97159.00
2018-11-11T07:40:27.179Z,97177.00
2018-11-11T07:44:29.682Z,97169.00
2018-11-11T07:48:32.427Z,97182.00
2018-11-11T07:52:35.115Z,97203.00
2018-11-11T07:56:37.837Z,97217.00
2018-11-11T08:00:40.466Z,97215.00
2018-11-11T08:04:43.012Z,97206.00
2018-11-11T08:08:45.456Z,97216.00
2018-11-11T08:12:47.944Z,97253.00
2018-11-11T08:16:50.487Z,97260.00
2018-11-11T08:20:53.091Z,97259.00
2018-11-11T08:24:55.554Z,97261.00
2018-11-11T08:28:57.988Z,97278.00
2018-11-11T08:33:00.534Z,97273.00
2018-11-11T08:37:03.105Z,97270.00
2018-11-11T08:41:05.769Z,97287.00
2018-11-11T08:45:10.810Z,97313.00
2018-11-11T08:49:14.294Z,97288.00
2018-11-11T08:53:16.773Z,97289.00
2018-11-11T08:57:19.451Z,97293.00
2018-11-11T09:01:22.141Z,97286.00
2018-11-11T09:05:24.644Z,97297.00
2018-11-11T09:09:27.137Z,97284.00
2018-11-11T09:13:29.715Z,97283.00
2018-11-11T09:17:32.349Z,97297.00
2018-11-11T09:21:34.765Z,97305.00
2018-11-11T09:25:37.199Z,97316.00
2018-11-11T09:29:39.885Z,97315.00
2018-11-11T09:33:42.229Z,97330.00
2018-11-11T09:37:44.775Z,97336.00
2018-11-11T09:41:47.236Z,97343.00
2018-11-11T09:45:49.731Z,97346.00
2018-11-11T09:49:52.334Z,97331.00
2018-11-11T09:53:54.784Z,97345.00
2018-11-11T09:57:57.221Z,97332.00
2018-11-11T10:01:59.845Z,97338.00
2018-11-11T10:08:14.633Z,97328.00
2018-11-11T10:12:20.922Z,97330.00
2018-11-11T10:16:28.313Z,97331.00
2018-11-11T10:20:38.099Z,97326.00
2018-11-11T10:24:46.504Z,97334.00
2018-11-11T10:28:55.965Z,97327.00
2018-11-11T10:33:13.891Z,97331.00
2018-11-11T10:37:29.428Z,97337.00
2018-11-11T10:41:40.245Z,97335.00
2018-11-11T10:45:53.174Z,97334.00
2018-11-11T10:49:58.026Z,97326.00
2018-11-11T10:54:00.491Z,97335.00
2018-11-11T10:58:02.954Z,97348.00
2018-11-11T11:02:11.028Z,97346.00
2018-11-11T11:06:15.432Z,97334.00
2018-11-11T11:10:18.150Z,97340.00
2018-11-11T11:14:20.676Z,97348.00
2018-11-11T11:18:23.180Z,97353.00
2018-11-11T11:22:25.642Z,97347.00
2018-11-11T11:26:28.266Z,97352.00
2018-11-11T11:30:30.755Z,97364.00
2018-11-11T11:34:33.338Z,97360.00
2018-11-11T11:38:36.151Z,97354.00
2018-11-11T11:42:38.861Z,97346.00
2018-11-11T11:46:42.293Z,97364.00
2018-11-11T11:50:45.398Z,97374.00
2018-11-11T11:54:47.903Z,97378.00
2018-11-11T11:58:50.440Z,97369.00
2018-11-11T12:02:52.988Z,97364.00
2018-11-11T12:06:55.583Z,97380.00
2018-11-11T12:10:58.073Z,97366.00
2018-11-11T12:15:00.546Z,97380.00
2018-11-11T12:19:03.144Z,97394.00
2018-11-11T12:23:05.958Z,97399.00
2018-11-11T12:27:08.382Z,97406.00
2018-11-11T12:31:10.938Z,97401.00
2018-11-11T12:35:13.642Z,97399.00
2018-11-11T12:39:16.283Z,97396.00
2018-11-11T12:43:19.342Z,97397.00
2018-11-11T12:47:21.812Z,97404.00
2018-11-11T12:51:24.327Z,97408.00
2018-11-11T12:55:28.007Z,97410.00
2018-11-11T12:59:30.407Z,97403.00
2018-11-11T13:03:32.879Z,97411.00
2018-11-11T13:07:35.500Z,97416.00
2018-11-11T13:11:37.957Z,97417.00
2018-11-11T13:15:40.417Z,97410.00
2018-11-11T13:19:42.960Z,97395.00
2018-11-11T13:23:45.510Z,97415.00
2018-11-11T13:27:47.990Z,97408.00
2018-11-11T13:31:50.421Z,97417.00
2018-11-11T13:35:52.968Z,97408.00
2018-11-11T13:39:55.542Z,97405.00
2018-11-11T13:43:58.082Z,97403.00
2018-11-11T13:48:00.523Z,97403.00
2018-11-11T13:52:03.547Z,97402.00
2018-11-11T13:56:07.097Z,97406.00
2018-11-11T14:00:14.233Z,97393.00
2018-11-11T14:04:17.494Z,97405.00
2018-11-11T14:08:20.482Z,97401.00
2018-11-11T14:12:22.869Z,97395.00
2018-11-11T14:16:25.398Z,97401.00
2018-11-11T14:20:27.903Z,97413.00
2018-11-11T14:24:31.297Z,97398.00
2018-11-11T14:28:34.019Z,97388.00
2018-11-11T14:32:36.568Z,97385.00
2018-11-11T14:36:39.041Z,97388.00
2018-11-11T14:40:41.512Z,97387.00
2018-11-11T14:44:44.107Z,97383.00
2018-11-11T14:48:46.766Z,97387.00
2018-11-11T14:52:49.483Z,97376.00
2018-11-11T14:56:52.092Z,97392.00
2018-11-11T15:00:54.581Z,97391.00
2018-11-11T15:04:57.126Z,97393.00
2018-11-11T15:08:59.591Z,97411.00
2018-11-11T15:13:03.561Z,97412.00
2018-11-11T15:17:06.057Z,97414.00
2018-11-11T15:21:08.535Z,97412.00
2018-11-11T15:25:12.507Z,97409.00
2018-11-11T15:29:15.077Z,97399.00
2018-11-11T15:33:17.539Z,97398.00
2018-11-11T15:37:20.123Z,97391.00
2018-11-11T15:41:22.620Z,97404.00
2018-11-11T15:45:26.427Z,97413.00
2018-11-11T15:49:29.027Z,97428.00
2018-11-11T15:53:31.673Z,97432.00
2018-11-11T15:57:34.241Z,97436.00
2018-11-11T16:01:37.659Z,97478.00
2018-11-11T16:05:40.366Z,97458.00
2018-11-11T16:09:43.800Z,97454.00
2018-11-11T16:13:46.283Z,97455.00
2018-11-11T16:17:50.521Z,97467.00
2018-11-11T16:21:53.007Z,97443.00
2018-11-11T16:25:55.508Z,97458.00
2018-11-11T16:29:58.155Z,97470.00
2018-11-11T16:34:00.821Z,97479.00
2018-11-11T16:38:03.509Z,97476.00
2018-11-11T16:42:06.035Z,97484.00
2018-11-11T16:46:08.823Z,97478.00
2018-11-11T16:50:17.261Z,97480.00
2018-11-11T16:54:20.090Z,97478.00
2018-11-11T16:58:23.007Z,97467.00
2018-11-11T17:02:25.995Z,97465.00
2018-11-11T17:06:29.508Z,97471.00
2018-11-11T17:10:33.563Z,97467.00
2018-11-11T17:14:36.023Z,97465.00
2018-11-11T17:18:38.520Z,97474.00
2018-11-11T17:22:41.455Z,97476.00
2018-11-11T17:26:44.209Z,97462.00
2018-11-11T17:30:47.193Z,97459.00
2018-11-11T17:34:52.485Z,97473.00
2018-11-11T17:38:56.911Z,97472.00
2018-11-11T17:43:02.690Z,97464.00
2018-11-11T17:47:07.397Z,97461.00
2018-11-11T17:51:09.912Z,97458.00
2018-11-11T17:55:13.807Z,97456.00
2018-11-11T17:59:17.882Z,97483.00
2018-11-11T18:03:20.533Z,97482.00
2018-11-11T18:07:23.469Z,97488.00
2018-11-11T18:11:26.249Z,97485.00
2018-11-11T18:15:30.009Z,97499.00
2018-11-11T18:19:32.516Z,97494.00
2018-11-11T18:23:34.975Z,97496.00
2018-11-11T18:27:37.633Z,97499.00
2018-11-11T18:31:40.458Z,97493.00
2018-11-11T18:35:43.032Z,97485.00
2018-11-11T18:39:45.778Z,97478.00
2018-11-11T18:43:48.244Z,97478.00
2018-11-11T18:47:51.489Z,97488.00
2018-11-11T18:51:54.496Z,97481.00
2018-11-11T18:55:57.123Z,97483.00
2018-11-11T18:59:59.643Z,97487.00
2018-11-11T19:04:02.296Z,97467.00
2018-11-11T19:08:05.249Z,97463.00
2018-11-11T19:12:07.910Z,97478.00
2018-11-11T19:16:10.437Z,97477.00
2018-11-11T19:20:14.281Z,97465.00
2018-11-11T19:24:17.145Z,97474.00
2018-11-11T19:28:20.833Z,97465.00
2018-11-11T19:32:23.320Z,97478.00
2018-11-11T19:36:27.233Z,97490.00
2018-11-11T19:40:30.251Z,97491.00
2018-11-11T19:44:32.841Z,97486.00
2018-11-11T19:48:35.735Z,97501.00
2018-11-11T19:52:39.046Z,97502.00
2018-11-11T19:56:41.747Z,97481.00
2018-11-11T20:00:44.921Z,97484.00
2018-11-11T20:04:47.839Z,97489.00
2018-11-11T20:08:50.470Z,97493.00
2018-11-11T20:12:53.449Z,97493.00
2018-11-11T20:16:56.020Z,97502.00
2018-11-11T20:20:58.779Z,97489.00
2018-11-11T20:25:01.476Z,97496.00
2018-11-11T20:29:04.494Z,97525.00
2018-11-11T20:33:07.357Z,97517.00
2018-11-11T20:37:09.921Z,97533.00
2018-11-11T20:41:12.459Z,97533.00
2018-11-11T20:45:16.318Z,97539.00
2018-11-11T20:49:20.306Z,97546.00
2018-11-11T20:53:22.774Z,97559.00
2018-11-11T20:57:25.570Z,97560.00
2018-11-11T21:01:28.271Z,97586.00
2018-11-11T21:05:30.995Z,97568.00
2018-11-11T21:09:33.661Z,97591.00
2018-11-11T21:13:36.086Z,97612.00
2018-11-11T21:17:38.546Z,97619.00
2018-11-11T21:21:40.995Z,97614.00
2018-11-11T21:25:43.558Z,97598.00
2018-11-11T21:29:46.204Z,97623.00
2018-11-11T21:33:48.680Z,97638.00
2018-11-11T21:37:51.220Z,97647.00
2018-11-11T21:41:53.733Z,97669.00
2018-11-11T21:45:56.403Z,97658.00
2018-11-11T21:49:58.774Z,97663.00
2018-11-11T21:54:01.324Z,97642.00
2018-11-11T21:58:03.965Z,97668.00
2018-11-11T22:02:06.624Z,97670.00
2018-11-11T22:06:09.365Z,97670.00
2018-11-11T22:10:13.290Z,97668.00
2018-11-11T22:14:15.930Z,97681.00
2018-11-11T22:18:18.609Z,97687.00
2018-11-11T22:22:21.886Z,97683.00
2018-11-11T22:26:24.779Z,97692.00
2018-11-11T22:30:27.211Z,97702.00
2018-11-11T22:34:29.819Z,97712.00
2018-11-11T22:38:32.309Z,97707.00
2018-11-11T22:42:35.130Z,97714.00
2018-11-11T22:46:38.344Z,97709.00
2018-11-11T22:50:40.803Z,97713.00
2018-11-11T22:54:43.440Z,97704.00
2018-11-11T22:58:45.901Z,97697.00
2018-11-11T23:02:48.828Z,97706.00
2018-11-11T23:06:51.288Z,97705.00
2018-11-11T23:10:53.744Z,97697.00
2018-11-11T23:14:56.265Z,97690.00
2018-11-11T23:18:58.759Z,97708.00
2018-11-11T23:23:01.203Z,97712.00
2018-11-11T23:27:03.855Z,97700.00
2018-11-11T23:31:06.397Z,97691.00
2018-11-11T23:35:15.787Z,97695.00
2018-11-11T23:39:18.264Z,97702.00
2018-11-11T23:43:20.856Z,97699.00
2018-11-11T23:47:23.322Z,97683.00
2018-11-11T23:51:25.876Z,97680.00
2018-11-11T23:55:28.376Z,97683.00
2018-11-11T23:59:30.875Z,97696.00
